Time;durP1;ratioP1;P1;durP2;ratioP2;P2;SDS_P1;SDS_P2;PMS_P1;PMS_P2;Temp;Humidity;BMP_temperature;BMP_pressure;BME280_temperature;BME280_humidity;BME280_pressure;Samples;Min_cycle;Max_cycle;Signal;HPM_P1;HPM_P2
2023/06/14 00:10:42;;;;;;;7.57;5.37;;;;;;;11.01;62.68;100201.63;30500574;28;96743;-67
2023/06/14 00:25:42;;;;;;;8.63;4.75;;;;;;;10.71;63.00;100196.06;30499682;28;96721;-68
2023/06/14 00:40:42;;;;;;;6.18;4.50;;;;;;;10.48;64.15;100199.47;30498158;28;108874;-68
2023/06/14 00:55:43;;;;;;;5.32;4.15;;;;;;;10.39;65.13;100203.16;30497088;28;106439;-68
2023/06/14 01:10:51;;;;;;;6.68;4.95;;;;;;;10.26;66.04;100203.59;30493527;28;96891;-66
2023/06/14 01:25:55;;;;;;;9.17;4.90;;;;;;;10.02;66.71;100201.81;30494390;28;96835;-68
2023/06/14 01:40:58;;;;;;;9.20;5.70;;;;;;;9.85;67.24;100197.47;30492813;28;97602;-67
2023/06/14 01:55:58;;;;;;;9.40;5.70;;;;;;;9.71;67.91;100199.78;30492306;28;96669;-67
2023/06/14 02:10:59;;;;;;;8.43;5.43;;;;;;;9.60;68.63;100186.81;30490948;28;96667;-67
2023/06/14 02:25:59;;;;;;;7.95;5.65;;;;;;;9.73;69.30;100195.16;30503164;28;96719;-66
2023/06/14 02:41:01;;;;;;;8.60;5.90;;;;;;;9.97;69.54;100191.66;30508751;28;114771;-67
2023/06/14 02:56:03;;;;;;;9.10;5.80;;;;;;;9.91;69.63;100194.97;30507280;28;96769;-67
2023/06/14 03:11:07;;;;;;;10.73;5.93;;;;;;;10.36;70.59;100192.84;30504127;28;96839;-68
2023/06/14 03:26:08;;;;;;;9.07;6.03;;;;;;;10.76;70.19;100193.72;30504002;28;97962;-66
2023/06/14 03:41:08;;;;;;;8.75;6.22;;;;;;;11.21;69.67;100211.88;30501577;28;97322;-66
2023/06/14 03:56:08;;;;;;;8.45;5.30;;;;;;;11.65;69.76;100204.13;30500237;28;106790;-67
2023/06/14 04:11:08;;;;;;;11.88;6.28;;;;;;;12.41;69.41;100213.22;30496778;28;116158;-66
2023/06/14 04:26:10;;;;;;;8.15;5.65;;;;;;;12.64;68.56;100215.84;30494538;28;114779;-66
2023/06/14 04:41:11;;;;;;;9.97;5.83;;;;;;;12.71;68.24;100216.75;30493776;28;96753;-66
2023/06/14 04:56:11;;;;;;;9.93;5.83;;;;;;;13.40;68.40;100234.38;30492651;28;97089;-66
2023/06/14 05:11:12;;;;;;;8.35;5.88;;;;;;;13.92;66.96;100243.16;30489200;28;97671;-67
2023/06/14 05:26:12;;;;;;;9.98;6.75;;;;;;;14.51;67.00;100241.22;30491968;28;96710;-66
2023/06/14 05:41:13;;;;;;;13.82;7.28;;;;;;;15.30;65.27;100239.22;30482609;28;97068;-66
2023/06/14 05:56:15;;;;;;;14.45;8.57;;;;;;;15.95;64.25;100238.81;30493618;28;96728;-67
2023/06/14 06:11:15;;;;;;;16.13;7.83;;;;;;;16.37;63.24;100255.59;30504377;28;97124;-68
2023/06/14 06:26:17;;;;;;;13.77;7.77;;;;;;;17.76;61.63;100260.81;30482416;28;97267;-70
2023/06/14 06:41:18;;;;;;;13.63;7.70;;;;;;;18.94;59.01;100269.28;30502023;28;96860;-72
2023/06/14 06:56:19;;;;;;;9.87;7.30;;;;;;;18.89;57.53;100286.16;30501180;28;97200;-69
2023/06/14 07:11:20;;;;;;;12.90;7.63;;;;;;;20.64;55.47;100281.97;30500513;28;96883;-69
2023/06/14 07:26:20;;;;;;;12.23;8.70;;;;;;;21.52;51.93;100283.88;30499373;28;96824;-69
2023/06/14 07:41:21;;;;;;;12.13;7.70;;;;;;;22.52;49.80;100284.34;30496825;28;97398;-68
2023/06/14 07:56:23;;;;;;;10.57;7.67;;;;;;;22.19;47.51;100294.09;30497387;28;96721;-70
2023/06/14 08:11:24;;;;;;;11.23;7.27;;;;;;;22.80;47.65;100288.84;30494038;28;96849;-70
2023/06/14 08:26:28;;;;;;;10.10;7.13;;;;;;;24.04;43.38;100284.13;30497263;28;96738;-73
2023/06/14 08:41:29;;;;;;;10.47;6.23;;;;;;;23.27;43.25;100284.88;30495347;28;97463;-67
2023/06/14 08:56:31;;;;;;;9.00;6.90;;;;;;;25.12;41.13;100274.00;30493608;28;96694;-69
2023/06/14 09:11:31;;;;;;;11.27;6.40;;;;;;;23.88;41.10;100292.13;30492401;28;97139;-69
2023/06/14 09:26:31;;;;;;;11.32;7.78;;;;;;;22.50;43.24;100285.66;30496862;28;96719;-66
2023/06/14 09:41:36;;;;;;;7.53;6.18;;;;;;;21.52;44.88;100290.09;30487403;28;107443;-69
2023/06/14 09:56:44;;;;;;;9.40;4.37;;;;;;;21.32;45.61;100289.69;30490115;28;96748;-69
2023/06/14 10:11:45;;;;;;;9.00;3.63;;;;;;;22.29;44.89;100302.41;30496189;28;96794;-70
2023/06/14 10:26:54;;;;;;;5.20;3.50;;;;;;;22.96;43.76;100303.47;30493134;28;97459;-69
2023/06/14 10:41:56;;;;;;;5.60;3.57;;;;;;;23.96;42.29;100291.69;30494862;28;96747;-67
2023/06/14 10:56:57;;;;;;;6.70;3.23;;;;;;;23.85;40.90;100289.88;30508125;28;96899;-72
2023/06/14 11:11:58;;;;;;;6.23;3.73;;;;;;;23.14;41.28;100279.81;30507959;28;97351;-72
2023/06/14 11:26:59;;;;;;;6.17;3.70;;;;;;;23.71;41.10;100275.06;30501900;28;96714;-71
2023/06/14 11:42:01;;;;;;;4.35;3.15;;;;;;;24.46;40.04;100258.88;30498777;28;97277;-67
2023/06/14 11:57:02;;;;;;;7.40;2.67;;;;;;;26.89;37.00;100261.19;30497680;28;96804;-67
2023/06/14 12:12:03;;;;;;;9.05;3.17;;;;;;;25.74;37.14;100245.06;30498651;28;96897;-70
2023/06/14 12:27:04;;;;;;;7.23;3.20;;;;;;;25.43;37.33;100241.47;30497938;28;97424;-74
2023/06/14 12:42:05;;;;;;;9.37;3.37;;;;;;;25.47;37.54;100237.09;30494182;28;96795;-81
2023/06/14 12:57:06;;;;;;;5.05;2.75;;;;;;;27.09;35.69;100226.66;30492469;28;96813;-67
2023/06/14 13:12:08;;;;;;;9.00;3.07;;;;;;;27.32;34.89;100223.25;30487522;28;96805;-67
2023/06/14 13:27:08;;;;;;;7.20;3.60;;;;;;;26.34;35.80;100217.25;30489402;28;96820;-70
2023/06/14 13:42:08;;;;;;;5.78;3.10;;;;;;;26.11;36.99;100221.41;30488874;28;96816;-72
2023/06/14 13:57:12;;;;;;;8.10;3.13;;;;;;;26.81;35.65;100212.56;30488636;28;96734;-71
2023/06/14 14:12:14;;;;;;;5.00;3.50;;;;;;;26.39;35.69;100214.53;30484841;28;96835;-69
2023/06/14 14:27:14;;;;;;;4.17;2.97;;;;;;;24.22;37.81;100234.75;30506907;28;96823;-69
2023/06/14 14:42:15;;;;;;;5.90;2.50;;;;;;;22.55;40.01;100240.41;30504257;28;96748;-69
2023/06/14 14:57:15;;;;;;;4.93;3.42;;;;;;;21.04;44.17;100242.53;30505613;28;96813;-72
2023/06/14 15:12:16;;;;;;;8.37;5.00;;;;;;;20.14;47.48;100252.59;30502731;28;111833;-70
2023/06/14 15:27:16;;;;;;;6.55;4.72;;;;;;;19.08;50.40;100249.19;30501316;28;97650;-69
2023/06/14 15:42:17;;;;;;;7.43;5.00;;;;;;;18.54;52.80;100251.56;30499399;28;97263;-67
2023/06/14 15:57:17;;;;;;;5.80;4.78;;;;;;;18.70;53.24;100241.25;30499101;28;96979;-71
2023/06/14 16:12:21;;;;;;;6.95;4.53;;;;;;;19.10;52.92;100243.56;30497766;28;97394;-66
2023/06/14 16:27:21;;;;;;;6.37;4.93;;;;;;;19.38;53.10;100242.19;30490243;28;97000;-69
2023/06/14 16:42:22;;;;;;;4.88;3.08;;;;;;;19.22;52.76;100257.16;30485447;28;97187;-69
2023/06/14 16:57:22;;;;;;;8.70;3.95;;;;;;;18.80;53.18;100263.16;30492366;28;96774;-69
2023/06/14 17:12:22;;;;;;;6.85;4.47;;;;;;;18.46;55.18;100265.34;30491990;28;96923;-71
2023/06/14 17:27:23;;;;;;;6.63;3.92;;;;;;;18.12;55.98;100267.47;30491016;28;96916;-69
2023/06/14 17:42:23;;;;;;;5.30;3.50;;;;;;;17.81;57.03;100270.94;30488037;28;96728;-69
2023/06/14 17:57:24;;;;;;;5.53;3.78;;;;;;;18.00;57.89;100267.34;30479814;28;96973;-69
2023/06/14 18:12:25;;;;;;;6.55;4.15;;;;;;;17.81;57.43;100266.41;30477398;28;97647;-70
2023/06/14 18:27:25;;;;;;;8.13;3.30;;;;;;;17.58;58.21;100273.13;30475724;28;97076;-68
2023/06/14 18:42:26;;;;;;;7.07;3.95;;;;;;;17.16;59.08;100283.44;30478005;28;112459;-68
2023/06/14 18:57:26;;;;;;;4.18;2.92;;;;;;;17.03;59.44;100296.94;30475518;28;97250;-69
2023/06/14 19:12:26;;;;;;;5.32;3.42;;;;;;;17.00;59.66;100300.03;30492395;28;96814;-69
2023/06/14 19:27:27;;;;;;;6.78;3.55;;;;;;;16.83;59.50;100307.72;30494096;28;102485;-66
2023/06/14 19:42:27;;;;;;;9.57;4.05;;;;;;;16.62;60.11;100311.44;30493138;28;96892;-65
2023/06/14 19:57:28;;;;;;;4.68;3.78;;;;;;;16.29;61.03;100312.25;30428869;28;97882;-68
2023/06/14 20:12:28;;;;;;;6.63;4.55;;;;;;;16.30;61.93;100319.28;30379472;28;96783;-66
2023/06/14 20:27:28;;;;;;;7.22;3.83;;;;;;;16.26;62.60;100331.47;30363253;28;106602;-69
2023/06/14 20:42:29;;;;;;;6.15;4.82;;;;;;;16.23;62.65;100327.34;30369485;28;103035;-71
2023/06/14 20:57:30;;;;;;;7.15;4.50;;;;;;;16.11;63.25;100315.53;30367257;28;97557;-66
2023/06/14 21:12:30;;;;;;;9.40;5.13;;;;;;;16.17;63.30;100320.91;30366078;28;97599;-70
2023/06/14 21:27:31;;;;;;;8.68;4.63;;;;;;;16.20;64.37;100317.81;30484577;28;97276;-68
2023/06/14 21:42:31;;;;;;;8.48;5.00;;;;;;;16.15;64.13;100332.91;30493478;28;96731;-65
2023/06/14 21:57:32;;;;;;;7.50;5.35;;;;;;;15.96;64.59;100327.25;30492329;28;96665;-70
2023/06/14 22:12:32;;;;;;;6.80;5.32;;;;;;;15.76;65.16;100324.50;30491058;28;96724;-67
2023/06/14 22:27:36;;;;;;;8.00;4.95;;;;;;;15.30;65.71;100317.88;30490042;28;96726;-69
2023/06/14 22:42:45;;;;;;;10.47;6.10;;;;;;;14.92;66.53;100301.34;30501768;28;96665;-66
2023/06/14 22:57:47;;;;;;;8.70;5.90;;;;;;;14.80;67.92;100312.59;30508768;28;96703;-66
2023/06/14 23:12:48;;;;;;;8.00;5.67;;;;;;;14.57;68.21;100304.78;30507637;28;97372;-66
2023/06/14 23:27:48;;;;;;;10.30;5.83;;;;;;;14.29;68.68;100294.00;30506471;28;96799;-69
2023/06/14 23:42:50;;;;;;;11.50;7.28;;;;;;;13.92;69.30;100291.38;30504380;28;98416;-69
2023/06/14 23:57:52;;;;;;;10.63;7.10;;;;;;;13.50;70.17;100283.06;30501621;28;96770;-70
